Frojdi II — ZAD4L — position and weather

sailwx.info

Track history (hours):
 
Tides and Currents Weather Stations Pressure Air Temp Water Temp Dewpoint Dewpoint Depression Visibility Wind Speed Wind Dir Waves Ship Positions

Frojdi II

Last reported at 2018-May-19 17:06 UTC. Time now 2018-Jun-18 11:46 UTC.
Position N 44°42' E 013°31'.
Warning: this ship's position is 29 days out of date.

Length 75 m; draft 2.8 m.

Type: Cargo ship. MMSI: 201100115.

Date/timePositionNaut miles runAvg speedWind from/ knotsBaromVisibWave heightAir tempDewpointWater temp
2018-May-19 17:06N 44°42' E 013°31'3 6.8
2018-May-19 16:44N 44°44' E 013°28'2 6.7
2018-May-19 16:29N 44°45' E 013°27'3 6.6
2018-May-19 16:00N 44°48' E 013°25'9 6.6
2018-May-19 14:40N 44°55' E 013°17'1 6.2
2018-May-19 14:31N 44°56' E 013°17'3 6.3
2018-May-19 14:00N 44°59' E 013°14'3 6.5
2018-May-19 13:29N 45°01' E 013°11'8 6.5
2018-May-19 12:16N 45°08' E 013°06'2 6.6
2018-May-19 11:59N 45°10' E 013°05'4 6.8
2018-May-19 11:28N 45°13' E 013°04'4 6.8
2018-May-19 10:56N 45°17' E 013°03'5 6.9
2018-May-19 10:14N 45°22' E 013°02'2 6.7
2018-May-19 09:55N 45°24' E 013°03'3 7.1
2018-May-19 09:30N 45°26' E 013°05'4 7.1
2018-May-19 09:01N 45°30' E 013°07'4 7.0
2018-May-19 08:30N 45°33' E 013°09'4 7.2
2018-May-19 08:00N 45°36' E 013°12'4 7.1
2018-May-19 07:26N 45°39' E 013°15'4 6.6
2018-May-19 06:47N 45°44' E 013°15'3 6.3
2018-May-19 06:16N 45°47' E 013°15'1 1.2
2018-May-19 05:23N 45°48' E 013°14'0 0.0
2018-May-19 05:01N 45°48' E 013°14'0 0.0
2018-May-19 01:17N 45°48' E 013°14'0 0.0
2018-May-18 23:45N 45°48' E 013°14'0 0.0
2018-May-18 23:30N 45°48' E 013°14'0 0.0
2018-May-18 22:45N 45°48' E 013°14'0 0.0
2018-May-18 22:30N 45°48' E 013°14'0 0.0
2018-May-18 22:00N 45°48' E 013°14'0 0.0
2018-May-18 21:15N 45°48' E 013°14'0 0.0
2018-May-18 20:48N 45°48' E 013°14'0 0.0
2018-May-18 20:30N 45°48' E 013°14'0 0.0
2018-May-18 20:00N 45°48' E 013°14'0 0.0
2018-May-18 19:30N 45°48' E 013°14'0 0.0
2018-May-18 18:57N 45°48' E 013°14'0 0.0
2018-May-18 18:30N 45°48' E 013°14'0 0.0
2018-May-18 04:54N 45°48' E 013°14'0 0.0
2018-May-18 04:21N 45°48' E 013°14'0 0.0
2018-May-18 04:00N 45°48' E 013°14'0 0.0
2018-May-18 03:21N 45°48' E 013°14'0 0.0
2018-May-18 02:54N 45°48' E 013°14'0 0.0
2018-May-18 02:30N 45°48' E 013°14'0 0.0
2018-May-18 01:54N 45°48' E 013°14'0 0.0
2018-May-18 01:18N 45°48' E 013°14'0 0.0
2018-May-18 01:00N 45°48' E 013°14'0 0.0
2018-May-18 00:27N 45°48' E 013°14'0 0.0
2018-May-17 23:54N 45°48' E 013°14'0 0.0
2018-May-17 23:30N 45°48' E 013°14'0 0.0
2018-May-17 22:57N 45°48' E 013°14'0 0.0
2018-May-17 22:27N 45°48' E 013°14'0 0.0
2018-May-17 21:51N 45°48' E 013°14'0 0.0
2018-May-17 21:27N 45°48' E 013°14'0 0.0
2018-May-17 21:00N 45°48' E 013°14'0 0.0
2018-May-17 20:30N 45°48' E 013°14'0 0.0
2018-May-17 19:48N 45°48' E 013°14'0 0.0
2018-May-17 19:30N 45°48' E 013°14'0 0.0
2018-May-17 18:57N 45°48' E 013°14'0 0.0
2018-May-17 18:24N 45°48' E 013°14'0 0.0
2018-May-17 18:00N 45°48' E 013°14'0 0.0
2018-May-17 17:30N 45°48' E 013°14'0 0.0
2018-May-17 16:48N 45°48' E 013°14'0 0.0
2018-May-17 16:30N 45°48' E 013°14'0 0.0
2018-May-17 05:18N 45°48' E 013°14'0 0.0
2018-May-17 04:48N 45°48' E 013°14'0 0.0
2018-May-17 04:30N 45°48' E 013°14'0 0.0
2018-May-17 03:57N 45°48' E 013°14'0 0.0
2018-May-17 03:12N 45°48' E 013°14'0 0.0
2018-May-17 02:54N 45°48' E 013°14'0 0.0
2018-May-17 02:24N 45°48' E 013°14'0 0.0
2018-May-17 01:36N 45°48' E 013°14'0 0.0
2018-May-17 01:21N 45°48' E 013°14'0 0.0
2018-May-17 00:45N 45°48' E 013°14'0 0.0
2018-May-17 00:30N 45°48' E 013°14'0 0.0
2018-May-16 23:45N 45°48' E 013°14'0 0.0
2018-May-16 23:30N 45°48' E 013°14'0 0.0
2018-May-16 23:00N 45°48' E 013°14'0 0.0
2018-May-16 22:09N 45°48' E 013°14'0 0.0
2018-May-16 21:54N 45°48' E 013°14'0 0.0
2018-May-16 21:24N 45°48' E 013°14'0 0.0
2018-May-16 20:57N 45°48' E 013°14'0 0.0
2018-May-16 19:51N 45°48' E 013°14'0 0.0
2018-May-16 19:23N 45°48' E 013°14'0 0.0
2018-May-16 18:54N 45°48' E 013°14'0 0.0
2018-May-16 18:29N 45°48' E 013°14'0 0.0
2018-May-16 17:59N 45°48' E 013°14'0 0.0
2018-May-16 17:29N 45°48' E 013°14'0 0.0
2018-May-16 16:59N 45°48' E 013°14'0 0.0
2018-May-16 16:29N 45°48' E 013°14'0 0.0
2018-May-16 15:56N 45°48' E 013°14'0 0.0
2018-May-16 15:29N 45°48' E 013°14'0 0.0
2018-May-16 14:59N 45°48' E 013°14'0 0.0
2018-May-16 14:29N 45°48' E 013°14'0 0.0
2018-May-16 13:59N 45°48' E 013°14'0 0.0
2018-May-16 13:29N 45°48' E 013°14'1 1.1
2018-May-16 13:00N 45°47' E 013°14'3 5.5
2018-May-16 12:30N 45°44' E 013°15'3 5.3
2018-May-16 12:00N 45°42' E 013°15'3 6.8
2018-May-16 11:31N 45°39' E 013°17'1 0.9
2018-May-16 10:57N 45°39' E 013°18'0 0.0
2018-May-16 10:18N 45°39' E 013°18'0 0.0
2018-May-16 10:00N 45°39' E 013°18'0 0.0
2018-May-16 09:30N 45°39' E 013°18'0 0.0
2018-May-16 08:54N 45°39' E 013°18'0 0.0
2018-May-16 08:23N 45°39' E 013°18'0 0.0
2018-May-16 07:56N 45°39' E 013°18'0 0.0
2018-May-16 07:17N 45°38' E 013°18'0 0.0
2018-May-16 06:53N 45°38' E 013°18'0 0.1
2018-May-16 06:28N 45°39' E 013°18'1 1.4
2018-May-16 06:00N 45°38' E 013°18'4 6.8
2018-May-16 05:29N 45°34' E 013°16'3 6.8
2018-May-16 05:00N 45°31' E 013°15'3 6.7
2018-May-16 04:31N 45°28' E 013°14'4 7.0
2018-May-16 04:00N 45°25' E 013°13'3 6.9
2018-May-16 03:30N 45°21' E 013°14'3 6.9
2018-May-16 03:00N 45°18' E 013°14'4 7.1
2018-May-16 02:30N 45°14' E 013°16'4 7.0
2018-May-16 02:00N 45°11' E 013°17'4 7.1
2018-May-16 01:30N 45°08' E 013°18'4 7.0
2018-May-16 01:00N 45°04' E 013°19'3 6.9
2018-May-16 00:30N 45°01' E 013°21'3 6.6
2018-May-16 00:00N 44°58' E 013°23'3 6.5
2018-May-15 23:30N 44°55' E 013°25'3 6.5
2018-May-15 23:00N 44°52' E 013°28'3 6.1
2018-May-15 22:30N 44°50' E 013°31'3 6.1
2018-May-15 22:00N 44°48' E 013°33'3 6.3
2018-May-15 21:30N 44°45' E 013°36'4 6.3
2018-May-15 20:48N 44°42' E 013°40'  
Track history (hours):
 
Tides and Currents Weather Stations Pressure Air Temp Water Temp Dewpoint Dewpoint Depression Visibility Wind Speed Wind Dir Waves Ship Positions

Frojdi II

Last reported at 2018-May-19 17:06 UTC. Time now 2018-Jun-18 11:46 UTC.
Position N 44°42' E 013°31'.
Warning: this ship's position is 29 days out of date.

Length 75 m; draft 2.8 m.

Type: Cargo ship. MMSI: 201100115.

Date/timePositionNaut miles runAvg speedWind from/ knotsBaromVisibWave heightAir tempDewpointWater temp
2018-May-19 17:06N 44°42' E 013°31'3 6.8
2018-May-19 16:44N 44°44' E 013°28'2 6.7
2018-May-19 16:29N 44°45' E 013°27'3 6.6
2018-May-19 16:00N 44°48' E 013°25'9 6.6
2018-May-19 14:40N 44°55' E 013°17'1 6.2
2018-May-19 14:31N 44°56' E 013°17'3 6.3
2018-May-19 14:00N 44°59' E 013°14'3 6.5
2018-May-19 13:29N 45°01' E 013°11'8 6.5
2018-May-19 12:16N 45°08' E 013°06'2 6.6
2018-May-19 11:59N 45°10' E 013°05'4 6.8
2018-May-19 11:28N 45°13' E 013°04'4 6.8
2018-May-19 10:56N 45°17' E 013°03'5 6.9
2018-May-19 10:14N 45°22' E 013°02'2 6.7
2018-May-19 09:55N 45°24' E 013°03'3 7.1
2018-May-19 09:30N 45°26' E 013°05'4 7.1
2018-May-19 09:01N 45°30' E 013°07'4 7.0
2018-May-19 08:30N 45°33' E 013°09'4 7.2
2018-May-19 08:00N 45°36' E 013°12'4 7.1
2018-May-19 07:26N 45°39' E 013°15'4 6.6
2018-May-19 06:47N 45°44' E 013°15'3 6.3
2018-May-19 06:16N 45°47' E 013°15'1 1.2
2018-May-19 05:23N 45°48' E 013°14'0 0.0
2018-May-19 05:01N 45°48' E 013°14'0 0.0
2018-May-19 01:17N 45°48' E 013°14'0 0.0
2018-May-18 23:45N 45°48' E 013°14'0 0.0
2018-May-18 23:30N 45°48' E 013°14'0 0.0
2018-May-18 22:45N 45°48' E 013°14'0 0.0
2018-May-18 22:30N 45°48' E 013°14'0 0.0
2018-May-18 22:00N 45°48' E 013°14'0 0.0
2018-May-18 21:15N 45°48' E 013°14'0 0.0
2018-May-18 20:48N 45°48' E 013°14'0 0.0
2018-May-18 20:30N 45°48' E 013°14'0 0.0
2018-May-18 20:00N 45°48' E 013°14'0 0.0
2018-May-18 19:30N 45°48' E 013°14'0 0.0
2018-May-18 18:57N 45°48' E 013°14'0 0.0
2018-May-18 18:30N 45°48' E 013°14'0 0.0
2018-May-18 04:54N 45°48' E 013°14'0 0.0
2018-May-18 04:21N 45°48' E 013°14'0 0.0
2018-May-18 04:00N 45°48' E 013°14'0 0.0
2018-May-18 03:21N 45°48' E 013°14'0 0.0
2018-May-18 02:54N 45°48' E 013°14'0 0.0
2018-May-18 02:30N 45°48' E 013°14'0 0.0
2018-May-18 01:54N 45°48' E 013°14'0 0.0
2018-May-18 01:18N 45°48' E 013°14'0 0.0
2018-May-18 01:00N 45°48' E 013°14'0 0.0
2018-May-18 00:27N 45°48' E 013°14'0 0.0
2018-May-17 23:54N 45°48' E 013°14'0 0.0
2018-May-17 23:30N 45°48' E 013°14'0 0.0
2018-May-17 22:57N 45°48' E 013°14'0 0.0
2018-May-17 22:27N 45°48' E 013°14'0 0.0
2018-May-17 21:51N 45°48' E 013°14'0 0.0
2018-May-17 21:27N 45°48' E 013°14'0 0.0
2018-May-17 21:00N 45°48' E 013°14'0 0.0
2018-May-17 20:30N 45°48' E 013°14'0 0.0
2018-May-17 19:48N 45°48' E 013°14'0 0.0
2018-May-17 19:30N 45°48' E 013°14'0 0.0
2018-May-17 18:57N 45°48' E 013°14'0 0.0
2018-May-17 18:24N 45°48' E 013°14'0 0.0
2018-May-17 18:00N 45°48' E 013°14'0 0.0
2018-May-17 17:30N 45°48' E 013°14'0 0.0
2018-May-17 16:48N 45°48' E 013°14'0 0.0
2018-May-17 16:30N 45°48' E 013°14'0 0.0
2018-May-17 05:18N 45°48' E 013°14'0 0.0
2018-May-17 04:48N 45°48' E 013°14'0 0.0
2018-May-17 04:30N 45°48' E 013°14'0 0.0
2018-May-17 03:57N 45°48' E 013°14'0 0.0
2018-May-17 03:12N 45°48' E 013°14'0 0.0
2018-May-17 02:54N 45°48' E 013°14'0 0.0
2018-May-17 02:24N 45°48' E 013°14'0 0.0
2018-May-17 01:36N 45°48' E 013°14'0 0.0
2018-May-17 01:21N 45°48' E 013°14'0 0.0
2018-May-17 00:45N 45°48' E 013°14'0 0.0
2018-May-17 00:30N 45°48' E 013°14'0 0.0
2018-May-16 23:45N 45°48' E 013°14'0 0.0
2018-May-16 23:30N 45°48' E 013°14'0 0.0
2018-May-16 23:00N 45°48' E 013°14'0 0.0
2018-May-16 22:09N 45°48' E 013°14'0 0.0
2018-May-16 21:54N 45°48' E 013°14'0 0.0
2018-May-16 21:24N 45°48' E 013°14'0 0.0
2018-May-16 20:57N 45°48' E 013°14'0 0.0
2018-May-16 19:51N 45°48' E 013°14'0 0.0
2018-May-16 19:23N 45°48' E 013°14'0 0.0
2018-May-16 18:54N 45°48' E 013°14'0 0.0
2018-May-16 18:29N 45°48' E 013°14'0 0.0
2018-May-16 17:59N 45°48' E 013°14'0 0.0
2018-May-16 17:29N 45°48' E 013°14'0 0.0
2018-May-16 16:59N 45°48' E 013°14'0 0.0
2018-May-16 16:29N 45°48' E 013°14'0 0.0
2018-May-16 15:56N 45°48' E 013°14'0 0.0
2018-May-16 15:29N 45°48' E 013°14'0 0.0
2018-May-16 14:59N 45°48' E 013°14'0 0.0
2018-May-16 14:29N 45°48' E 013°14'0 0.0
2018-May-16 13:59N 45°48' E 013°14'0 0.0
2018-May-16 13:29N 45°48' E 013°14'1 1.1
2018-May-16 13:00N 45°47' E 013°14'3 5.5
2018-May-16 12:30N 45°44' E 013°15'3 5.3
2018-May-16 12:00N 45°42' E 013°15'3 6.8
2018-May-16 11:31N 45°39' E 013°17'1 0.9
2018-May-16 10:57N 45°39' E 013°18'0 0.0
2018-May-16 10:18N 45°39' E 013°18'0 0.0
2018-May-16 10:00N 45°39' E 013°18'0 0.0
2018-May-16 09:30N 45°39' E 013°18'0 0.0
2018-May-16 08:54N 45°39' E 013°18'0 0.0
2018-May-16 08:23N 45°39' E 013°18'0 0.0
2018-May-16 07:56N 45°39' E 013°18'0 0.0
2018-May-16 07:17N 45°38' E 013°18'0 0.0
2018-May-16 06:53N 45°38' E 013°18'0 0.1
2018-May-16 06:28N 45°39' E 013°18'1 1.4
2018-May-16 06:00N 45°38' E 013°18'4 6.8
2018-May-16 05:29N 45°34' E 013°16'3 6.8
2018-May-16 05:00N 45°31' E 013°15'3 6.7
2018-May-16 04:31N 45°28' E 013°14'4 7.0
2018-May-16 04:00N 45°25' E 013°13'3 6.9
2018-May-16 03:30N 45°21' E 013°14'3 6.9
2018-May-16 03:00N 45°18' E 013°14'4 7.1
2018-May-16 02:30N 45°14' E 013°16'4 7.0
2018-May-16 02:00N 45°11' E 013°17'4 7.1
2018-May-16 01:30N 45°08' E 013°18'4 7.0
2018-May-16 01:00N 45°04' E 013°19'3 6.9
2018-May-16 00:30N 45°01' E 013°21'3 6.6
2018-May-16 00:00N 44°58' E 013°23'3 6.5
2018-May-15 23:30N 44°55' E 013°25'3 6.5
2018-May-15 23:00N 44°52' E 013°28'3 6.1
2018-May-15 22:30N 44°50' E 013°31'3 6.1
2018-May-15 22:00N 44°48' E 013°33'3 6.3
2018-May-15 21:30N 44°45' E 013°36'4 6.3
2018-May-15 20:48N 44°42' E 013°40'  

Dump ship's entire track history